.
WxDataArchive / Data Records for 2009-06-22
2009-06-21 June 2009 2009-06-23

Data Records for Monday, 22 June 2009

Time	Temp	Chill	HIndex	Humid	Dewpt	 Wind 	HiWind	WindDir	Rain 	Barom 
-----	----	-----	------	-----	-----	------	------	-------	-----	----- 
00:00	72.7	72.7	72.7	77	65.1	0	1	90	0.00	29.829 
00:05	72.5	72.5	72.5	78	65.2	0	1	90	0.00	29.829 
00:10	72.3	72.3	72.3	78	65.0	0	1	90	0.00	29.829 
00:15	72.3	72.3	72.3	79	65.4	0	1	90	0.00	29.832 
00:20	72.1	72.1	72.1	80	65.6	0	0	---	0.00	29.832 
00:25	72.0	72.0	72.0	80	65.5	0	0	---	0.00	29.832 
00:30	71.8	71.8	71.8	80	65.3	0	0	---	0.00	29.832 
00:35	71.6	71.6	71.6	81	65.4	0	0	---	0.00	29.832 
00:40	71.5	71.5	71.5	81	65.4	0	0	---	0.00	29.832 
00:45	71.3	71.3	71.3	82	65.5	0	0	---	0.00	29.833 
00:50	71.1	71.1	71.1	83	65.7	0	0	---	0.00	29.833 
00:55	70.9	70.9	70.9	83	65.5	0	0	---	0.00	29.833 
01:00	70.9	70.9	70.9	84	65.8	0	0	---	0.00	29.832 
01:05	70.8	70.8	70.8	84	65.7	0	0	---	0.00	29.832 
01:10	70.6	70.6	70.6	84	65.5	0	0	---	0.00	29.832 
01:15	70.4	70.4	70.4	85	65.7	0	0	---	0.00	29.830 
01:20	70.3	70.3	70.3	85	65.6	0	0	---	0.00	29.830 
01:25	70.1	70.1	70.1	86	65.7	0	0	---	0.00	29.830 
01:30	69.9	69.9	69.9	87	65.8	0	0	---	0.00	29.827 
01:35	70.1	70.1	70.1	87	66.0	0	0	---	0.00	29.827 
01:40	70.1	70.1	70.1	87	66.0	0	0	---	0.00	29.827 
01:45	70.1	70.1	70.1	87	66.0	0	1	90	0.00	29.830 
01:50	70.1	70.1	70.1	88	66.4	0	1	90	0.00	29.830 
01:55	70.1	70.1	70.1	88	66.4	0	1	90	0.00	29.830 
02:00	70.1	70.1	70.1	88	66.4	0	2	90	0.00	29.833 
02:05	70.3	70.3	70.3	88	66.6	0	1	90	0.00	29.833 
02:10	70.3	70.3	70.3	88	66.6	0	1	90	0.00	29.833 
02:15	70.4	70.4	70.4	88	66.7	0	2	90	0.00	29.832 
02:20	70.4	70.4	70.4	87	66.3	0	1	90	0.00	29.832 
02:25	70.4	70.4	70.4	87	66.3	0	1	90	0.00	29.832 
02:30	70.4	70.4	70.4	87	66.3	0	1	90	0.00	29.837 
02:35	70.4	70.4	70.4	87	66.3	0	0	---	0.00	29.837 
02:40	70.4	70.4	70.4	87	66.3	0	1	90	0.00	29.837 
02:45	70.4	70.4	70.4	88	66.7	0	1	90	0.00	29.833 
02:50	70.4	70.4	70.4	88	66.7	0	1	90	0.00	29.833 
02:55	70.4	70.4	70.4	88	66.7	1	2	90	0.00	29.833 
03:00	70.4	70.4	70.4	88	66.7	0	2	90	0.00	29.829 
03:05	70.4	70.4	70.4	88	66.7	0	2	90	0.00	29.829 
03:10	70.3	70.3	70.3	88	66.6	0	3	90	0.00	29.829 
03:15	70.3	70.3	70.3	88	66.6	0	2	90	0.00	29.827 
03:20	70.1	70.1	70.1	88	66.4	0	1	90	0.00	29.827 
03:25	70.1	70.1	70.1	88	66.4	0	1	90	0.00	29.827 
03:30	69.9	69.9	69.9	88	66.2	0	1	90	0.00	29.828 
03:35	69.9	69.9	69.9	88	66.2	0	1	90	0.00	29.828 
03:40	69.9	69.9	69.9	88	66.2	0	1	90	0.00	29.828 
03:45	69.8	69.8	69.8	89	66.4	0	0	---	0.00	29.829 
03:50	69.8	69.8	69.8	89	66.4	0	1	90	0.00	29.829 
03:55	69.8	69.8	69.8	89	66.4	0	1	90	0.00	29.829 
04:00	69.8	69.8	69.8	89	66.4	0	1	90	0.00	29.828 
04:05	69.8	69.8	69.8	89	66.4	0	0	---	0.00	29.828 
04:10	69.8	69.8	69.8	89	66.4	0	1	90	0.00	29.828 
04:15	69.8	69.8	69.8	89	66.4	0	1	90	0.00	29.821 
04:20	69.8	69.8	69.8	88	66.1	0	1	90	0.00	29.821 
04:25	69.8	69.8	69.8	89	66.4	0	1	90	0.00	29.821 
04:30	69.6	69.6	69.6	89	66.2	0	1	90	0.00	29.822 
04:35	69.6	69.6	69.6	88	65.9	0	1	90	0.00	29.822 
04:40	69.4	69.4	69.4	89	66.0	0	1	90	0.00	29.822 
04:45	69.3	69.3	69.3	89	65.9	0	1	90	0.00	29.816 
04:50	69.1	69.1	69.1	89	65.7	0	0	---	0.00	29.816 
04:55	68.9	68.9	68.9	90	65.8	0	1	90	0.00	29.816 
05:00	68.8	68.8	68.8	90	65.7	0	0	---	0.00	29.821 
05:05	68.6	68.6	68.6	90	65.5	0	0	---	0.00	29.821 
05:10	68.4	68.4	68.4	90	65.3	0	0	---	0.00	29.821 
05:15	68.3	68.3	68.3	90	65.2	0	0	---	0.00	29.820 
05:20	68.1	68.1	68.1	90	65.0	0	0	---	0.00	29.820 
05:25	67.9	67.9	67.9	91	65.2	0	0	---	0.00	29.820 
05:30	67.8	67.8	67.8	91	65.1	0	0	---	0.00	29.829 
05:35	67.6	67.6	67.6	91	64.9	0	0	---	0.00	29.829 
05:40	67.6	67.6	67.6	91	64.9	0	0	---	0.00	29.829 
05:45	67.4	67.4	67.4	92	65.0	0	0	---	0.00	29.832 
05:50	67.4	67.4	67.4	92	65.0	0	0	---	0.00	29.832 
05:55	67.3	67.3	67.3	92	64.9	0	0	---	0.00	29.832 
06:00	67.3	67.3	67.3	92	64.9	0	0	---	0.00	29.839 
06:05	67.1	67.1	67.1	92	64.7	0	1	90	0.00	29.839 
06:10	67.3	67.3	67.3	92	64.9	0	0	---	0.00	29.839 
06:15	67.3	67.3	67.3	93	65.2	0	0	---	0.00	29.840 
06:20	67.3	67.3	67.3	93	65.2	0	1	90	0.00	29.840 
06:25	67.3	67.3	67.3	93	65.2	0	0	---	0.00	29.840 
06:30	67.1	67.1	67.1	93	65.0	0	0	---	0.00	29.846 
06:35	67.1	67.1	67.1	93	65.0	0	0	---	0.00	29.846 
06:40	67.1	67.1	67.1	93	65.0	0	0	---	0.00	29.846 
06:45	67.3	67.3	67.3	93	65.2	0	1	90	0.00	29.847 
06:50	67.4	67.4	67.4	93	65.3	0	2	90	0.00	29.847 
06:55	67.6	67.6	67.6	93	65.5	0	2	90	0.00	29.847 
07:00	67.8	67.8	67.8	92	65.4	0	1	90	0.00	29.848 
07:05	68.1	68.1	68.1	92	65.7	0	2	90	0.00	29.848 
07:10	68.3	68.3	68.3	92	65.9	1	3	90	0.00	29.848 
07:15	68.4	68.4	68.4	91	65.7	2	4	112	0.00	29.836 
07:20	68.6	68.6	68.6	91	65.9	1	5	90	0.00	29.836 
07:25	68.8	68.8	68.8	91	66.1	0	2	90	0.00	29.836 
07:30	68.9	68.9	68.9	90	65.8	0	2	90	0.00	29.845 
07:35	69.1	69.1	69.1	90	66.0	0	2	90	0.00	29.845 
07:40	69.3	69.3	69.3	89	65.9	1	3	90	0.00	29.845 
07:45	69.4	69.4	69.4	88	65.7	1	3	90	0.00	29.848 
07:50	69.6	69.6	69.6	87	65.6	1	4	90	0.00	29.848 
07:55	69.9	69.9	69.9	86	65.5	1	3	90	0.00	29.848 
08:00	70.3	70.3	70.3	85	65.6	0	2	90	0.00	29.847 
08:05	70.4	70.4	70.4	84	65.3	1	2	90	0.00	29.847 
08:10	70.8	70.8	70.8	83	65.4	0	2	90	0.00	29.847 
08:15	70.9	70.9	70.9	82	65.1	1	2	90	0.00	29.850 
08:20	71.1	71.1	71.1	82	65.3	0	1	90	0.00	29.850 
08:25	71.3	71.3	71.3	82	65.5	0	1	90	0.00	29.850 
08:30	71.5	71.5	71.5	81	65.4	0	1	90	0.00	29.850 
08:35	71.6	71.6	71.6	81	65.4	0	1	90	0.00	29.850 
08:40	72.0	72.0	72.0	81	65.8	0	2	90	0.00	29.850 
08:45	72.0	72.0	72.0	80	65.5	1	2	90	0.00	29.851 
08:50	72.3	72.3	72.3	80	65.8	0	2	90	0.00	29.851 
08:55	72.5	72.5	72.5	78	65.2	1	2	90	0.00	29.851 
09:00	72.7	72.7	72.7	77	65.1	1	3	90	0.00	29.836 
09:05	73.0	73.0	73.0	76	65.0	2	4	90	0.00	29.836 
09:10	73.2	73.2	73.2	76	65.2	1	3	112	0.00	29.836 
09:15	73.5	73.5	73.5	74	64.7	1	3	158	0.00	29.839 
09:20	73.7	73.7	73.7	74	64.9	0	2	135	0.00	29.839 
09:25	74.0	74.0	74.0	74	65.2	0	2	180	0.00	29.839 
09:30	74.7	74.7	74.7	72	65.1	1	4	90	0.00	29.846 
09:35	75.4	75.4	77.1	70	64.9	1	4	90	0.00	29.846 
09:40	76.1	76.1	77.8	69	65.2	2	3	90	0.00	29.846 
09:45	76.8	76.8	78.6	68	65.4	1	7	90	0.00	29.847 
09:50	77.0	77.0	78.8	67	65.2	2	9	68	0.00	29.847 
09:55	77.4	77.4	79.2	68	66.0	1	3	112	0.00	29.847 
10:00	77.6	77.6	79.4	66	65.3	2	5	68	0.00	29.847 
10:05	77.2	77.2	79.0	66	64.9	2	5	90	0.00	29.847 
10:10	76.8	76.8	78.6	67	65.0	2	5	68	0.00	29.847 
10:15	76.7	76.7	78.5	67	64.9	1	3	90	0.00	29.848 
10:20	76.7	76.7	78.5	68	65.3	1	4	90	0.00	29.848 
10:25	76.5	76.5	78.3	67	64.7	1	3	90	0.00	29.848 
10:30	76.3	76.3	78.0	69	65.4	1	3	90	0.00	29.850 
10:35	76.0	76.0	77.7	68	64.7	2	5	68	0.00	29.850 
10:40	75.8	75.8	77.6	67	64.0	1	4	68	0.00	29.850 
10:45	75.6	75.6	77.4	67	63.9	1	3	68	0.00	29.856 
10:50	75.6	75.6	77.4	67	63.9	1	3	68	0.00	29.856 
10:55	75.8	75.8	77.7	66	63.6	0	2	135	0.00	29.856 
11:00	76.0	76.0	77.8	67	64.2	1	2	135	0.00	29.860 
11:05	76.1	76.1	77.9	66	63.9	1	3	90	0.00	29.860 
11:10	76.3	76.3	78.1	65	63.6	1	4	112	0.00	29.860 
11:15	76.5	76.5	78.3	65	63.8	2	5	90	0.00	29.859 
11:20	76.7	76.7	78.5	65	64.0	1	2	90	0.00	29.859 
11:25	77.2	77.2	79.0	66	64.9	1	4	90	0.00	29.859 
11:30	77.7	77.7	79.5	65	65.0	1	3	90	0.00	29.853 
11:35	78.3	78.3	80.1	63	64.6	2	4	90	0.00	29.853 
11:40	78.5	78.5	80.3	62	64.4	3	5	90	0.00	29.853 
11:45	78.5	78.5	80.3	62	64.4	1	4	90	0.00	29.848 
11:50	79.0	79.0	80.8	61	64.4	1	4	112	0.00	29.848 
11:55	79.6	79.6	81.3	60	64.5	2	4	112	0.00	29.848 
12:00	80.1	80.1	81.9	60	64.9	1	6	90	0.00	29.845 
12:05	80.5	80.5	82.2	58	64.3	2	4	112	0.00	29.845 
12:10	80.7	80.7	82.7	60	65.5	2	4	112	0.00	29.845 
12:15	80.7	80.7	82.5	59	65.0	2	5	90	0.00	29.837 
12:20	80.9	80.9	83.4	63	67.1	2	5	90	0.00	29.837 
12:25	81.1	81.1	82.9	58	64.9	2	5	90	0.00	29.837 
12:30	81.4	81.4	83.8	61	66.6	1	4	90	0.00	29.840 
12:35	81.4	81.4	83.4	59	65.7	2	5	112	0.00	29.840 
12:40	80.9	80.9	82.8	59	65.2	2	5	90	0.00	29.840 
12:45	80.9	80.9	83.2	62	66.6	1	4	112	0.00	29.835 
12:50	81.2	81.2	83.0	58	65.0	2	7	112	0.00	29.835 
12:55	81.6	81.6	83.7	59	65.9	2	4	112	0.00	29.835 
13:00	81.8	81.8	83.8	58	65.6	2	4	68	0.00	29.835 
13:05	82.2	82.2	84.2	57	65.4	2	5	90	0.00	29.835 
13:10	82.4	82.4	83.9	54	64.1	2	4	112	0.00	29.835 
13:15	82.2	82.2	84.2	57	65.4	2	9	90	0.00	29.832 
13:20	82.2	82.2	83.8	55	64.4	2	5	112	0.00	29.832 
13:25	82.8	82.8	84.8	56	65.5	1	3	90	0.00	29.832 
13:30	83.2	83.2	84.9	54	64.8	2	4	90	0.00	29.829 
13:35	83.2	83.2	84.9	54	64.8	2	7	90	0.00	29.829 
13:40	83.2	83.2	84.9	54	64.8	2	5	90	0.00	29.829 
13:45	83.2	83.2	84.9	54	64.8	2	6	90	0.00	29.832 
13:50	83.6	83.6	85.9	56	66.2	1	5	112	0.00	29.832 
13:55	83.6	83.6	85.9	56	66.2	1	6	90	0.00	29.832 
14:00	83.6	83.6	85.7	55	65.7	1	5	90	0.00	29.828 
14:05	83.6	83.6	85.0	52	64.1	2	6	112	0.00	29.828 
14:10	83.8	83.8	85.3	52	64.3	1	3	112	0.00	29.828 
14:15	84.1	84.1	86.4	55	66.2	1	3	112	0.00	29.824 
14:20	84.1	84.1	85.3	50	63.4	2	4	90	0.00	29.824 
14:25	84.1	84.1	85.3	50	63.4	2	5	90	0.00	29.824 
14:30	84.1	84.1	85.5	51	64.0	2	5	112	0.00	29.818 
14:35	84.1	84.1	86.2	54	65.6	1	4	112	0.00	29.818 
14:40	84.3	84.3	87.0	56	66.9	2	6	90	0.00	29.818 
14:45	84.0	84.0	85.8	53	65.0	3	6	90	0.00	29.817 
14:50	84.0	84.0	86.0	54	65.5	2	7	90	0.00	29.817 
14:55	84.0	84.0	85.6	52	64.4	1	6	112	0.00	29.817 
15:00	84.1	84.1	85.9	53	65.1	2	6	90	0.00	29.816 
15:05	84.0	84.0	85.8	53	65.0	2	5	90	0.00	29.816 
15:10	84.1	84.1	85.9	53	65.1	2	5	112	0.00	29.816 
15:15	84.3	84.3	86.5	54	65.8	0	2	112	0.00	29.816 
15:20	84.5	84.5	86.3	52	64.9	2	5	90	0.00	29.816 
15:25	84.5	84.5	85.3	48	62.6	1	4	90	0.00	29.816 
15:30	84.5	84.5	85.6	49	63.2	2	5	90	0.00	29.817 
15:35	84.7	84.7	85.2	46	61.6	2	5	90	0.00	29.817 
15:40	85.1	85.1	86.6	50	64.3	1	3	90	0.00	29.817 
15:45	85.1	85.1	86.1	48	63.2	2	4	90	0.00	29.816 
15:50	85.1	85.1	86.4	49	63.8	1	3	90	0.00	29.816 
15:55	85.1	85.1	86.4	49	63.8	1	4	90	0.00	29.816 
16:00	85.7	85.7	88.3	53	66.6	1	3	90	0.00	29.814 
16:05	85.7	85.7	87.2	49	64.3	1	3	90	0.00	29.814 
16:10	85.5	85.5	87.4	51	65.3	2	6	90	0.00	29.814 
16:15	85.1	85.1	86.4	49	63.8	2	5	90	0.00	29.808 
16:20	84.9	84.9	86.3	50	64.2	1	4	90	0.00	29.808 
16:25	84.9	84.9	86.1	49	63.6	1	5	90	0.00	29.808 
16:30	85.1	85.1	86.4	49	63.8	1	4	90	0.00	29.805 
16:35	85.3	85.3	86.6	49	63.9	1	4	90	0.00	29.805 
16:40	85.3	85.3	86.1	47	62.8	1	4	112	0.00	29.805 
16:45	85.3	85.3	85.9	46	62.1	1	3	112	0.00	29.804 
16:50	84.9	84.9	85.6	47	62.4	1	2	112	0.00	29.804 
16:55	84.5	84.5	85.3	48	62.6	2	5	90	0.00	29.804 
17:00	84.3	84.3	85.3	49	63.0	0	2	90	0.00	29.806 
17:05	84.3	84.3	85.5	50	63.6	0	1	90	0.00	29.806 
17:10	84.3	84.3	84.9	47	61.8	1	4	90	0.00	29.806 
17:15	84.3	84.3	84.7	46	61.2	1	3	90	0.00	29.806 
17:20	84.7	84.7	85.6	48	62.8	1	3	90	0.00	29.806 
17:25	84.9	84.9	85.2	45	61.2	1	5	90	0.00	29.806 
17:30	85.1	85.1	85.2	44	60.7	1	3	90	0.00	29.804 
17:35	85.3	85.3	85.9	46	62.1	1	5	112	0.00	29.804 
17:40	85.3	85.3	85.5	44	60.9	1	3	112	0.00	29.804 
17:45	85.3	85.3	85.7	45	61.5	1	3	112	0.00	29.804 
17:50	85.5	85.5	86.2	46	62.3	1	3	112	0.00	29.804 
17:55	85.5	85.5	86.6	48	63.5	1	3	112	0.00	29.804 
18:00	85.5	85.5	86.9	49	64.1	0	3	112	0.00	29.804 
18:05	85.5	85.5	86.6	48	63.5	0	2	112	0.00	29.804 
18:10	85.1	85.1	86.1	48	63.2	1	6	90	0.00	29.804 
18:15	84.9	84.9	85.8	48	63.0	1	4	68	0.00	29.804 
18:20	84.5	84.5	85.1	47	62.0	2	7	112	0.00	29.804 
18:25	84.3	84.3	85.1	48	62.4	1	2	112	0.00	29.804 
18:30	84.0	84.0	84.7	48	62.2	2	5	68	0.00	29.804 
18:35	84.0	84.0	85.3	51	63.9	1	4	112	0.00	29.804 
18:40	83.6	83.6	84.6	50	63.0	1	4	112	0.00	29.804 
18:45	83.4	83.4	84.4	50	62.8	2	5	90	0.00	29.809 
18:50	83.4	83.4	85.0	53	64.4	0	1	90	0.00	29.809 
18:55	83.2	83.2	84.3	51	63.2	1	3	90	0.00	29.809 
19:00	83.2	83.2	84.3	51	63.2	1	3	90	0.00	29.812 
19:05	82.8	82.8	83.7	50	62.2	1	2	90	0.00	29.812 
19:10	82.8	82.8	83.8	51	62.8	1	6	90	0.00	29.812 
19:15	82.6	82.6	83.8	52	63.2	1	5	68	0.00	29.813 
19:20	82.6	82.6	83.4	50	62.0	3	6	90	0.00	29.813 
19:25	82.4	82.4	83.4	51	62.4	1	3	90	0.00	29.813 
19:30	82.2	82.2	83.0	50	61.7	2	5	90	0.00	29.808 
19:35	82.2	82.2	83.0	50	61.7	1	3	112	0.00	29.808 
19:40	82.2	82.2	83.0	50	61.7	0	2	112	0.00	29.808 
19:45	82.2	82.2	83.0	50	61.7	1	4	112	0.00	29.814 
19:50	82.2	82.2	83.5	53	63.3	1	3	112	0.00	29.814 
19:55	82.0	82.0	83.4	54	63.7	1	4	90	0.00	29.814 
20:00	81.8	81.8	83.2	54	63.5	1	4	90	0.00	29.812 
20:05	81.6	81.6	82.9	54	63.3	1	3	90	0.00	29.812 
20:10	81.4	81.4	82.7	54	63.1	1	4	90	0.00	29.812 
20:15	81.4	81.4	82.7	54	63.1	1	3	90	0.00	29.812 
20:20	81.2	81.2	82.6	55	63.5	1	4	90	0.00	29.812 
20:25	81.1	81.1	82.8	57	64.4	0	1	90	0.00	29.812 
20:30	80.9	80.9	82.4	56	63.7	1	3	90	0.00	29.816 
20:35	80.9	80.9	82.4	56	63.7	0	3	112	0.00	29.816 
20:40	80.7	80.7	82.3	57	64.0	0	1	112	0.00	29.816 
20:45	80.3	80.3	81.9	58	64.2	0	0	---	0.00	29.818 
20:50	79.8	79.8	81.4	58	63.7	0	1	112	0.00	29.818 
20:55	79.4	79.4	81.0	59	63.8	0	0	---	0.00	29.818 
21:00	79.0	79.0	80.6	59	63.4	0	0	---	0.00	29.817 
21:05	78.6	78.6	80.3	60	63.5	0	1	112	0.00	29.817 
21:10	78.5	78.5	80.2	61	63.9	0	1	112	0.00	29.817 
21:15	78.1	78.1	79.8	61	63.5	0	0	---	0.00	29.813 
21:20	77.7	77.7	79.4	62	63.6	0	0	---	0.00	29.813 
21:25	77.4	77.4	79.2	63	63.8	0	0	---	0.00	29.813 
21:30	77.0	77.0	78.8	63	63.4	0	0	---	0.00	29.817 
21:35	76.7	76.7	78.5	63	63.1	0	0	---	0.00	29.817 
21:40	76.3	76.3	78.2	63	62.8	0	0	---	0.00	29.817 
21:45	76.0	76.0	77.9	64	62.9	0	0	---	0.00	29.819 
21:50	75.8	75.8	77.7	65	63.2	0	0	---	0.00	29.819 
21:55	75.4	75.4	77.4	65	62.8	0	0	---	0.00	29.819 
22:00	75.1	75.1	77.1	65	62.5	0	0	---	0.00	29.830 
22:05	74.9	74.9	74.9	66	62.8	0	0	---	0.00	29.830 
22:10	74.6	74.6	74.6	66	62.5	0	0	---	0.00	29.830 
22:15	74.4	74.4	74.4	67	62.7	0	0	---	0.00	29.836 
22:20	74.2	74.2	74.2	67	62.5	0	0	---	0.00	29.836 
22:25	73.9	73.9	73.9	67	62.2	0	0	---	0.00	29.836 
22:30	73.7	73.7	73.7	68	62.5	0	0	---	0.00	29.842 
22:35	73.5	73.5	73.5	68	62.3	0	0	---	0.00	29.842 
22:40	73.3	73.3	73.3	68	62.1	0	0	---	0.00	29.842 
22:45	73.2	73.2	73.2	69	62.4	0	1	112	0.00	29.852 
22:50	73.3	73.3	73.3	69	62.5	0	1	112	0.00	29.852 
22:55	73.5	73.5	73.5	69	62.7	0	1	112	0.00	29.852 
23:00	73.9	73.9	73.9	69	63.1	0	1	112	0.00	29.854 
23:05	73.9	73.9	73.9	68	62.7	0	1	112	0.00	29.854 
23:10	73.9	73.9	73.9	69	63.1	0	0	---	0.00	29.854 
23:15	73.9	73.9	73.9	69	63.1	0	1	112	0.00	29.850 
23:20	73.9	73.9	73.9	69	63.1	0	1	112	0.00	29.850 
23:25	73.7	73.7	73.7	70	63.3	0	0	---	0.00	29.850 
23:30	73.3	73.3	73.3	70	62.9	0	0	---	0.00	29.851 
23:35	73.2	73.2	73.2	71	63.2	0	1	112	0.00	29.851 
23:40	73.0	73.0	73.0	71	63.0	0	1	112	0.00	29.851 
23:45	72.8	72.8	72.8	72	63.2	0	0	---	0.00	29.859 
23:50	72.5	72.5	72.5	72	62.9	0	0	---	0.00	29.859 
23:55	72.3	72.3	72.3	73	63.1	0	0	---	0.00	29.859 

CoCoRaHS
IN-AL-39
A2 Web Hosting
Creative Commons License
GoDaddy
search engine by freefind advanced

loaded 2018-11-17 22:28:03 • last modified 2010-11-18 10:43:29
Privacy PolicyDisclaimer
• wx.awcolley.com is powered by PmWiki v.2002016 •
• all content (unless otherwise noted) © 2018 A W Colley